TOGAR weather

Aviosuperficie Merlo Romano
Garzigliana (TO), Piedmont, Italy

Public forecast

Using degrees Celsius for public forecast. Weather courtesy of forecast.io.

Closest aviation weather report (METAR) to Aviosuperficie Merlo Romano

Report is more than 2 hours old.

Closest report is Torino-Aeritalia Airport, 18.2 nm (33.8 km) NE. Retrieved 2020/05/29 16:50 UTC (3 hours ago):

LIMA 291650Z 22006KT 190V250 9999 FEW030 19/08 Q1019

Closest aviation forecast (TAF) to Aviosuperficie Merlo Romano

Closest forecast is Cuneo International Airport, 20.5 nm (38.0 km) SSE. Retrieved 2020/05/29 18:21 UTC (1 hour ago):

TAF LIMZ 291700Z 2918/3018 VRB05KT 9999 FEW030